Time;durP1;ratioP1;P1;durP2;ratioP2;P2;SDS_P1;SDS_P2;PMS_P1;PMS_P2;Temp;Humidity;BMP_temperature;BMP_pressure;BME280_temperature;BME280_humidity;BME280_pressure;Samples;Min_cycle;Max_cycle;Signal;HPM_P1;HPM_P2
2023/04/12 00:00:25;;;;;;;7.60;1.40;;;10.10;94.50;;;;;;4991282;28;20026;-76
2023/04/12 00:03:03;;;;;;;4.20;1.65;;;10.10;95.00;;;;;;4990845;28;20169;-77
2023/04/12 00:05:33;;;;;;;6.35;1.33;;;10.10;95.30;;;;;;4988104;28;20038;-76
2023/04/12 00:08:05;;;;;;;5.53;1.38;;;10.10;96.40;;;;;;4990618;28;20403;-76
2023/04/12 00:10:30;;;;;;;7.15;1.40;;;10.00;97.00;;;;;;4987431;28;20022;-77
2023/04/12 00:12:56;;;;;;;4.68;1.60;;;9.90;98.30;;;;;;4990585;28;20038;-77
2023/04/12 00:15:24;;;;;;;3.78;1.00;;;9.90;99.50;;;;;;4986604;28;20025;-77
2023/04/12 00:17:56;;;;;;;6.63;1.63;;;9.80;99.90;;;;;;4986753;28;20034;-78
2023/04/12 00:20:22;;;;;;;4.70;1.23;;;9.80;99.90;;;;;;4986765;28;20101;-77
2023/04/12 00:22:53;;;;;;;3.58;1.45;;;9.80;99.90;;;;;;4983276;28;20105;-77
2023/04/12 00:25:19;;;;;;;5.28;1.13;;;9.80;99.90;;;;;;4989074;28;20054;-77
2023/04/12 00:27:44;;;;;;;3.28;1.35;;;9.80;99.90;;;;;;4990992;28;20034;-77
2023/04/12 00:30:10;;;;;;;4.88;1.48;;;9.80;99.90;;;;;;4991057;28;20034;-77
2023/04/12 00:32:36;;;;;;;5.28;1.63;;;9.70;99.90;;;;;;4989579;28;20511;-76
2023/04/12 00:35:02;;;;;;;5.57;1.42;;;9.70;99.90;;;;;;4989672;28;20055;-77
2023/04/12 00:37:27;;;;;;;5.47;1.10;;;9.70;99.90;;;;;;4989513;28;20026;-77
2023/04/12 00:39:53;;;;;;;4.50;1.58;;;9.70;99.90;;;;;;4984507;28;20097;-75
2023/04/12 00:42:18;;;;;;;3.47;1.40;;;9.70;99.90;;;;;;4990527;28;20061;-75
2023/04/12 00:44:50;;;;;;;6.32;1.73;;;9.70;99.90;;;;;;4989871;28;20030;-75
2023/04/12 00:47:16;;;;;;;6.50;1.77;;;9.60;99.90;;;;;;4987808;28;20105;-76
2023/04/12 00:49:41;;;;;;;6.03;1.10;;;9.70;99.90;;;;;;5002672;28;20113;-77
2023/04/12 00:52:08;;;;;;;3.80;1.60;;;9.60;99.90;;;;;;4982746;28;20519;-77
2023/04/12 00:54:53;;;;;;;4.07;1.55;;;9.60;99.90;;;;;;4986814;28;20409;-76
2023/04/12 00:57:19;;;;;;;10.43;1.70;;;9.60;99.90;;;;;;4989109;28;20415;-76
2023/04/12 00:59:45;;;;;;;6.53;1.70;;;9.50;99.90;;;;;;4986814;28;20096;-77
2023/04/12 01:02:11;;;;;;;4.18;1.40;;;9.50;99.90;;;;;;4990252;28;20030;-76
2023/04/12 01:04:42;;;;;;;4.22;1.48;;;9.50;99.90;;;;;;4986145;28;20500;-77
2023/04/12 01:07:38;;;;;;;5.05;1.80;;;9.50;99.90;;;;;;5007346;28;20030;-77
2023/04/12 01:10:10;;;;;;;3.78;1.55;;;9.50;99.90;;;;;;4994919;28;20084;-77
2023/04/12 01:12:47;;;;;;;7.18;1.20;;;9.50;99.90;;;;;;4995402;28;20364;-77
2023/04/12 01:15:16;;;;;;;6.50;1.55;;;9.50;99.90;;;;;;4990359;28;20519;-77
2023/04/12 01:18:13;;;;;;;7.28;2.00;;;9.50;99.90;;;;;;4993280;28;20030;-78
2023/04/12 01:21:06;;;;;;;4.28;1.50;;;9.40;99.90;;;;;;4991207;28;20076;-76
2023/04/12 01:23:47;;;;;;;4.95;1.67;;;9.40;99.90;;;;;;5008546;28;20030;-77
2023/04/12 01:26:47;;;;;;;6.97;2.28;;;9.40;99.90;;;;;;4993266;28;20054;-75
2023/04/12 01:29:20;;;;;;;2.83;1.45;;;9.40;99.90;;;;;;4992589;28;20086;-76
2023/04/12 01:32:03;;;;;;;5.85;2.90;;;9.40;99.90;;;;;;4991468;28;20046;-77
2023/04/12 01:34:31;;;;;;;4.45;1.65;;;9.40;99.90;;;;;;4994758;28;20038;-78
2023/04/12 01:37:00;;;;;;;5.68;1.88;;;9.30;99.90;;;;;;5004719;28;20722;-76
2023/04/12 01:39:32;;;;;;;3.63;1.77;;;9.40;99.90;;;;;;4989601;28;20038;-77
2023/04/12 01:41:58;;;;;;;5.28;1.98;;;9.40;99.90;;;;;;4993811;28;20057;-77
2023/04/12 01:44:24;;;;;;;3.65;1.58;;;9.40;99.90;;;;;;4994657;28;20089;-76
2023/04/12 01:46:50;;;;;;;4.40;1.55;;;9.40;99.90;;;;;;4993201;28;20487;-76
2023/04/12 01:49:17;;;;;;;6.25;1.55;;;9.40;99.90;;;;;;4993524;28;20372;-77
2023/04/12 01:51:49;;;;;;;5.25;1.65;;;9.30;99.90;;;;;;4988785;28;20022;-77
2023/04/12 01:54:26;;;;;;;2.00;1.50;;;9.30;99.90;;;;;;4995999;28;20018;-77
2023/04/12 01:56:56;;;;;;;6.15;1.20;;;9.30;99.90;;;;;;4988117;28;20033;-76
2023/04/12 01:59:50;;;;;;;4.32;1.45;;;9.30;99.90;;;;;;5008674;28;20090;-76
2023/04/12 02:02:16;;;;;;;4.07;0.90;;;9.30;99.90;;;;;;5000981;28;20034;-76
2023/04/12 02:04:43;;;;;;;3.03;1.00;;;9.30;99.90;;;;;;4993578;28;20043;-76
2023/04/12 02:07:17;;;;;;;1.88;1.02;;;9.30;99.90;;;;;;4992890;28;20041;-76
2023/04/12 02:09:42;;;;;;;1.13;0.70;;;9.30;99.90;;;;;;4991839;28;20399;-76
2023/04/12 02:12:08;;;;;;;1.95;1.20;;;9.40;99.90;;;;;;4994687;28;20030;-76
2023/04/12 02:14:34;;;;;;;2.45;1.10;;;9.40;99.90;;;;;;4993125;28;20035;-75
2023/04/12 02:17:12;;;;;;;2.00;0.80;;;9.30;99.90;;;;;;4993481;28;20019;-77
2023/04/12 02:19:37;;;;;;;2.05;0.75;;;9.30;99.90;;;;;;4991356;28;20038;-77
2023/04/12 02:22:04;;;;;;;3.05;0.90;;;9.30;99.90;;;;;;4992316;28;20061;-76
2023/04/12 02:24:30;;;;;;;2.40;1.20;;;9.30;99.90;;;;;;4993835;28;20026;-76
2023/04/12 02:26:57;;;;;;;2.58;0.88;;;9.30;99.90;;;;;;4991124;28;20093;-76
2023/04/12 02:29:30;;;;;;;1.65;0.73;;;9.30;99.90;;;;;;5008803;28;20121;-76
2023/04/12 02:31:58;;;;;;;1.10;0.80;;;9.30;99.90;;;;;;4992131;28;20018;-76
2023/04/12 02:34:24;;;;;;;3.95;1.02;;;9.30;99.90;;;;;;4994662;28;20027;-76
2023/04/12 02:36:50;;;;;;;1.08;0.70;;;9.30;99.90;;;;;;4995322;28;20031;-76
2023/04/12 02:39:24;;;;;;;2.17;0.57;;;9.20;99.90;;;;;;4990896;28;20098;-76
2023/04/12 02:41:50;;;;;;;2.42;0.70;;;9.20;99.90;;;;;;4992193;28;20030;-76
2023/04/12 02:44:31;;;;;;;2.25;0.80;;;9.20;99.90;;;;;;4992093;28;20441;-75
2023/04/12 02:46:59;;;;;;;1.50;0.70;;;9.20;99.90;;;;;;4988534;28;20026;-76
2023/04/12 02:49:25;;;;;;;2.25;0.80;;;9.20;99.90;;;;;;5006181;28;20391;-76
2023/04/12 02:51:50;;;;;;;2.97;0.80;;;9.10;99.90;;;;;;4994159;28;20025;-76
2023/04/12 02:54:16;;;;;;;2.55;0.73;;;9.10;99.90;;;;;;4993041;28;20059;-76
2023/04/12 02:56:43;;;;;;;1.15;0.60;;;9.10;99.90;;;;;;5010209;28;20026;-75
2023/04/12 02:59:09;;;;;;;1.75;0.93;;;9.10;99.90;;;;;;4987927;28;20506;-76
2023/04/12 03:01:39;;;;;;;2.90;1.15;;;9.00;99.90;;;;;;4993432;28;20027;-76
2023/04/12 03:04:05;;;;;;;2.92;0.90;;;9.10;99.90;;;;;;5006246;28;20507;-76
2023/04/12 03:06:51;;;;;;;2.53;0.80;;;9.10;99.90;;;;;;4994176;28;20028;-78
2023/04/12 03:09:19;;;;;;;2.22;1.05;;;9.00;99.90;;;;;;4991574;28;20033;-76
2023/04/12 03:11:46;;;;;;;1.63;0.73;;;9.00;99.90;;;;;;4995103;28;20028;-78
2023/04/12 03:14:14;;;;;;;1.95;0.80;;;9.00;99.90;;;;;;4992314;28;20019;-76
2023/04/12 03:16:43;;;;;;;1.50;0.73;;;9.00;99.90;;;;;;4992251;28;20030;-76
2023/04/12 03:19:08;;;;;;;3.42;1.10;;;9.00;99.90;;;;;;4993210;28;20022;-75
2023/04/12 03:21:37;;;;;;;2.03;1.05;;;9.00;99.90;;;;;;4990220;28;20040;-76
2023/04/12 03:24:03;;;;;;;1.60;1.08;;;8.90;99.90;;;;;;4996536;28;20546;-75
2023/04/12 03:26:34;;;;;;;1.60;0.75;;;9.00;99.90;;;;;;4991263;28;20026;-76
2023/04/12 03:29:12;;;;;;;1.05;0.52;;;9.00;99.90;;;;;;4992837;28;20023;-76
2023/04/12 03:31:38;;;;;;;2.85;0.80;;;8.90;99.90;;;;;;4990438;28;20085;-76
2023/04/12 03:34:07;;;;;;;2.88;0.90;;;8.90;99.90;;;;;;5003333;28;20019;-76
2023/04/12 03:36:36;;;;;;;2.33;1.00;;;8.90;99.90;;;;;;4994642;28;20491;-77
2023/04/12 03:39:02;;;;;;;3.13;0.80;;;8.90;99.90;;;;;;4990760;28;20022;-77
2023/04/12 03:41:31;;;;;;;3.15;1.13;;;8.90;99.90;;;;;;4993009;28;20034;-76
2023/04/12 03:44:00;;;;;;;1.38;0.70;;;8.80;99.90;;;;;;4995639;28;20026;-76
2023/04/12 03:46:28;;;;;;;4.80;1.00;;;8.80;99.90;;;;;;4990222;28;20054;-75
2023/04/12 03:48:53;;;;;;;1.67;0.80;;;8.80;99.90;;;;;;4993088;28;20030;-75
2023/04/12 03:51:25;;;;;;;3.80;0.90;;;8.80;99.90;;;;;;4993599;28;20552;-77
2023/04/12 03:53:53;;;;;;;2.78;1.05;;;8.70;99.90;;;;;;4992239;28;20037;-76
2023/04/12 03:56:19;;;;;;;1.42;0.65;;;8.70;99.90;;;;;;5008685;28;20414;-77
2023/04/12 03:58:51;;;;;;;1.85;0.88;;;8.80;99.90;;;;;;4994836;28;20042;-76
2023/04/12 04:01:17;;;;;;;2.50;1.00;;;8.70;99.90;;;;;;5013090;28;20038;-76
2023/04/12 04:03:43;;;;;;;2.25;1.08;;;8.70;99.90;;;;;;4989624;28;20034;-78
2023/04/12 04:06:10;;;;;;;2.45;1.13;;;8.70;99.90;;;;;;4993307;28;20037;-78
2023/04/12 04:08:36;;;;;;;5.38;1.65;;;8.70;99.90;;;;;;5008583;28;20048;-78
2023/04/12 04:11:02;;;;;;;3.38;1.33;;;8.70;99.90;;;;;;4992325;28;20035;-77
2023/04/12 04:13:28;;;;;;;2.50;1.17;;;8.70;99.90;;;;;;4993084;28;20498;-77
2023/04/12 04:16:04;;;;;;;1.55;0.93;;;8.70;99.90;;;;;;4994437;28;20022;-77
2023/04/12 04:18:34;;;;;;;1.50;1.10;;;8.70;99.90;;;;;;4992361;28;20372;-76
2023/04/12 04:21:00;;;;;;;2.38;1.10;;;8.70;99.90;;;;;;4995416;28;20134;-77
2023/04/12 04:23:37;;;;;;;2.97;1.30;;;8.70;99.90;;;;;;4993435;28;20066;-77
2023/04/12 04:26:09;;;;;;;2.08;1.10;;;8.70;99.90;;;;;;4993328;28;20033;-75
2023/04/12 04:28:37;;;;;;;3.17;1.20;;;8.60;99.90;;;;;;4994216;28;20041;-75
2023/04/12 04:31:09;;;;;;;3.78;1.35;;;8.70;99.90;;;;;;4994975;28;20037;-75
2023/04/12 04:33:44;;;;;;;3.13;1.20;;;8.70;99.90;;;;;;4995350;28;20033;-75
2023/04/12 04:36:14;;;;;;;2.03;1.27;;;8.70;99.90;;;;;;4995000;28;20029;-75
2023/04/12 04:38:40;;;;;;;3.33;1.58;;;8.70;99.90;;;;;;4994449;28;20037;-76
2023/04/12 04:41:09;;;;;;;2.20;1.35;;;8.60;99.90;;;;;;4994194;28;20038;-76
2023/04/12 04:43:45;;;;;;;3.40;1.38;;;8.70;99.90;;;;;;4997215;28;20479;-74
2023/04/12 04:46:12;;;;;;;4.72;1.55;;;8.70;99.90;;;;;;4996745;28;20077;-76
2023/04/12 04:48:39;;;;;;;2.88;1.25;;;8.60;99.90;;;;;;4999029;28;20430;-75
2023/04/12 04:51:05;;;;;;;3.13;1.58;;;8.60;99.90;;;;;;4999378;28;20022;-75
2023/04/12 04:53:31;;;;;;;1.95;1.25;;;8.70;99.90;;;;;;4998608;28;20088;-74
2023/04/12 04:55:58;;;;;;;5.47;1.55;;;8.60;99.90;;;;;;4997485;28;20030;-76
2023/04/12 04:58:30;;;;;;;3.05;1.30;;;8.60;99.90;;;;;;4997785;28;20018;-75
2023/04/12 05:00:58;;;;;;;3.50;1.23;;;8.60;99.90;;;;;;4998199;28;20034;-75
2023/04/12 05:03:27;;;;;;;2.13;1.08;;;8.60;99.90;;;;;;4998962;28;20022;-75
2023/04/12 05:06:00;;;;;;;4.13;1.42;;;8.60;99.90;;;;;;4998653;28;20030;-75
2023/04/12 05:08:29;;;;;;;4.85;1.30;;;8.60;99.90;;;;;;4998702;28;20053;-76
2023/04/12 05:10:58;;;;;;;1.35;1.00;;;8.70;99.90;;;;;;4998498;28;20034;-76
2023/04/12 05:13:23;;;;;;;6.90;2.08;;;8.60;99.90;;;;;;4997948;28;20034;-75
2023/04/12 05:15:49;;;;;;;3.03;1.27;;;8.60;99.90;;;;;;4997325;28;20030;-74
2023/04/12 05:18:16;;;;;;;2.05;1.25;;;8.70;99.90;;;;;;4997965;28;20041;-76
2023/04/12 05:20:47;;;;;;;2.00;0.95;;;8.60;99.90;;;;;;4997789;28;20026;-75
2023/04/12 05:23:13;;;;;;;2.65;1.38;;;8.60;99.90;;;;;;4999238;28;20038;-74
2023/04/12 05:25:45;;;;;;;2.63;1.20;;;8.60;99.90;;;;;;4998686;28;20161;-75
2023/04/12 05:28:13;;;;;;;3.00;1.48;;;8.60;99.90;;;;;;4998387;28;20077;-76
2023/04/12 05:30:39;;;;;;;1.70;1.17;;;8.60;99.90;;;;;;4997480;28;20029;-74
2023/04/12 05:33:05;;;;;;;2.58;1.20;;;8.70;99.90;;;;;;4998781;28;20018;-76
2023/04/12 05:35:34;;;;;;;2.20;1.20;;;8.70;99.90;;;;;;4999034;28;20459;-74
2023/04/12 05:38:02;;;;;;;2.95;1.27;;;8.70;99.90;;;;;;4997463;28;20395;-76
2023/04/12 05:40:30;;;;;;;3.28;1.52;;;8.70;99.90;;;;;;4998327;28;20046;-77
2023/04/12 05:42:59;;;;;;;3.38;1.80;;;8.70;99.90;;;;;;4996881;28;20034;-76
2023/04/12 05:45:27;;;;;;;2.33;1.35;;;8.70;99.90;;;;;;4998684;28;20026;-76
2023/04/12 05:47:56;;;;;;;2.08;1.27;;;8.70;99.90;;;;;;4996607;28;20488;-75
2023/04/12 05:50:28;;;;;;;1.90;1.13;;;8.70;99.90;;;;;;4998114;28;20030;-74
2023/04/12 05:52:56;;;;;;;2.72;1.00;;;8.70;99.90;;;;;;4997487;28;20045;-73
2023/04/12 05:55:22;;;;;;;3.75;1.30;;;8.70;99.90;;;;;;4996969;28;20060;-76
2023/04/12 05:57:48;;;;;;;2.22;0.93;;;8.70;99.90;;;;;;4997888;28;20018;-75
2023/04/12 06:00:17;;;;;;;1.70;1.10;;;8.80;99.90;;;;;;4998345;28;20101;-74
2023/04/12 06:02:44;;;;;;;6.78;2.40;;;8.80;99.90;;;;;;4996435;28;20033;-75
2023/04/12 06:05:11;;;;;;;5.38;1.40;;;8.70;99.90;;;;;;4997513;28;20089;-76
2023/04/12 06:07:46;;;;;;;2.25;0.82;;;8.80;99.90;;;;;;4996359;28;20043;-76
2023/04/12 06:10:15;;;;;;;1.73;0.90;;;8.80;99.90;;;;;;4997593;28;20510;-75
2023/04/12 06:12:41;;;;;;;1.73;1.10;;;8.80;99.90;;;;;;4996907;28;20045;-75
2023/04/12 06:15:10;;;;;;;2.28;0.80;;;8.80;99.90;;;;;;4995851;28;20096;-72
2023/04/12 06:17:38;;;;;;;0.90;0.50;;;8.80;99.90;;;;;;4995193;28;20022;-75
2023/04/12 06:20:08;;;;;;;1.95;1.00;;;8.90;99.90;;;;;;4997787;28;20056;-75
2023/04/12 06:22:34;;;;;;;1.58;0.65;;;8.80;99.90;;;;;;4997603;28;20026;-76
2023/04/12 06:25:12;;;;;;;2.58;1.42;;;8.90;99.90;;;;;;4998061;28;20019;-76
2023/04/12 06:27:46;;;;;;;2.08;1.20;;;8.90;99.90;;;;;;4997839;28;20065;-77
2023/04/12 06:30:15;;;;;;;2.42;0.80;;;8.90;99.90;;;;;;4997462;28;20477;-76
2023/04/12 06:32:41;;;;;;;2.35;0.70;;;8.90;99.90;;;;;;4998214;28;20029;-75
2023/04/12 06:35:07;;;;;;;2.92;0.60;;;8.90;99.90;;;;;;4998158;28;20243;-76
2023/04/12 06:37:32;;;;;;;1.42;0.80;;;8.90;99.90;;;;;;4997319;28;20030;-74
2023/04/12 06:40:07;;;;;;;1.33;0.73;;;9.00;99.90;;;;;;4997200;28;20383;-75
2023/04/12 06:42:33;;;;;;;1.95;0.82;;;9.00;99.90;;;;;;4997462;28;20034;-74
2023/04/12 06:45:05;;;;;;;2.67;0.90;;;9.00;99.90;;;;;;4997697;28;20041;-75
2023/04/12 06:47:37;;;;;;;1.77;0.70;;;9.00;99.90;;;;;;4997434;28;20081;-75
2023/04/12 06:50:06;;;;;;;1.25;0.80;;;9.00;99.90;;;;;;4997546;28;20114;-75
2023/04/12 06:52:37;;;;;;;2.63;0.90;;;9.00;99.90;;;;;;4997506;28;20142;-74
2023/04/12 06:55:04;;;;;;;2.50;0.90;;;9.10;99.90;;;;;;4995370;28;20022;-75
2023/04/12 06:57:29;;;;;;;2.55;0.85;;;9.10;99.90;;;;;;4996434;28;20026;-73
2023/04/12 06:59:58;;;;;;;0.90;0.70;;;9.00;99.90;;;;;;4994782;28;20077;-74
2023/04/12 07:02:24;;;;;;;1.70;0.80;;;9.10;99.90;;;;;;4996526;28;20026;-72
2023/04/12 07:04:59;;;;;;;1.50;0.80;;;9.10;99.90;;;;;;4994730;28;20049;-75
2023/04/12 07:07:24;;;;;;;1.42;0.70;;;9.10;99.90;;;;;;4994888;28;20347;-75
2023/04/12 07:09:51;;;;;;;1.38;0.57;;;9.10;99.90;;;;;;4995103;28;20140;-73
2023/04/12 07:12:17;;;;;;;1.50;0.63;;;9.10;99.90;;;;;;4994737;28;20053;-74
2023/04/12 07:14:45;;;;;;;2.33;0.90;;;9.10;99.90;;;;;;4995079;28;20022;-74
2023/04/12 07:17:14;;;;;;;2.10;0.75;;;9.10;99.90;;;;;;4995079;28;20045;-76
2023/04/12 07:19:40;;;;;;;0.90;0.68;;;9.10;99.90;;;;;;4995325;28;20098;-76
2023/04/12 07:22:07;;;;;;;1.80;0.77;;;9.20;99.90;;;;;;4989483;28;20081;-73
2023/04/12 07:24:35;;;;;;;2.53;0.80;;;9.20;99.90;;;;;;4984831;28;20026;-73
2023/04/12 07:27:04;;;;;;;1.27;0.73;;;9.20;99.90;;;;;;4986398;28;20042;-73
2023/04/12 07:29:36;;;;;;;1.08;0.80;;;9.30;99.90;;;;;;4986426;28;20100;-74
2023/04/12 07:32:03;;;;;;;2.25;0.82;;;9.40;99.90;;;;;;4989410;28;20475;-73
2023/04/12 07:34:31;;;;;;;1.20;0.80;;;9.40;99.90;;;;;;4987719;28;21081;-71
2023/04/12 07:37:00;;;;;;;1.42;0.80;;;9.50;99.90;;;;;;4989214;28;20109;-77
2023/04/12 07:39:33;;;;;;;1.98;0.95;;;9.60;99.90;;;;;;4994981;28;20048;-75
2023/04/12 07:42:00;;;;;;;1.50;0.90;;;9.60;99.90;;;;;;4995109;28;20023;-76
2023/04/12 07:44:25;;;;;;;3.30;1.20;;;9.70;99.90;;;;;;4993831;28;20030;-74
2023/04/12 07:46:51;;;;;;;2.53;1.00;;;9.70;99.90;;;;;;4995139;28;20534;-76
2023/04/12 07:49:17;;;;;;;2.75;1.00;;;9.80;99.90;;;;;;4994401;28;20133;-77
2023/04/12 07:51:42;;;;;;;2.95;0.80;;;9.80;99.90;;;;;;4994806;28;20026;-77
2023/04/12 07:54:12;;;;;;;4.10;0.90;;;9.90;99.90;;;;;;4994070;28;20037;-75
2023/04/12 07:56:37;;;;;;;2.03;1.00;;;10.00;99.90;;;;;;4992797;28;20050;-76
2023/04/12 07:59:06;;;;;;;4.35;1.00;;;10.00;99.90;;;;;;5009413;28;20033;-74
2023/04/12 08:01:32;;;;;;;3.00;1.05;;;10.00;99.90;;;;;;4992327;28;20214;-75
2023/04/12 08:04:00;;;;;;;1.88;1.10;;;10.10;99.90;;;;;;4992335;28;20085;-75
2023/04/12 08:06:32;;;;;;;1.63;1.10;;;10.20;99.90;;;;;;4993748;28;20018;-75
2023/04/12 08:08:58;;;;;;;2.78;1.10;;;10.20;99.90;;;;;;5009044;28;20118;-76
2023/04/12 08:11:24;;;;;;;1.63;1.00;;;10.30;99.90;;;;;;4993367;28;20066;-76
2023/04/12 08:13:49;;;;;;;1.05;0.70;;;10.40;99.90;;;;;;4993920;28;20018;-75
2023/04/12 08:16:15;;;;;;;3.80;1.13;;;10.40;99.90;;;;;;4991950;28;20029;-75
2023/04/12 08:18:41;;;;;;;4.47;1.42;;;10.50;99.90;;;;;;4993040;28;20019;-74
2023/04/12 08:21:09;;;;;;;2.42;1.20;;;10.50;99.90;;;;;;4993449;28;20034;-76
2023/04/12 08:23:35;;;;;;;2.65;0.80;;;10.50;99.90;;;;;;4993967;28;20077;-75
2023/04/12 08:26:04;;;;;;;2.03;1.00;;;10.60;99.90;;;;;;4993402;28;20030;-75
2023/04/12 08:28:31;;;;;;;2.50;1.20;;;10.70;99.90;;;;;;4993532;28;20037;-75
2023/04/12 08:30:57;;;;;;;3.42;1.17;;;10.80;99.90;;;;;;4993404;28;20066;-74
2023/04/12 08:33:23;;;;;;;3.72;0.88;;;10.80;99.90;;;;;;4992824;28;20384;-74
2023/04/12 08:35:49;;;;;;;1.48;0.95;;;11.00;99.90;;;;;;4993682;28;20022;-76
2023/04/12 08:38:15;;;;;;;2.42;0.80;;;11.00;99.90;;;;;;4993392;28;20018;-76
2023/04/12 08:40:46;;;;;;;2.53;0.73;;;11.10;99.90;;;;;;5008116;28;20113;-74
2023/04/12 08:43:12;;;;;;;1.48;0.90;;;11.20;99.90;;;;;;4992944;28;20109;-75
2023/04/12 08:45:38;;;;;;;2.40;0.85;;;11.30;99.90;;;;;;4993673;28;20030;-74
2023/04/12 08:48:04;;;;;;;2.35;0.98;;;11.30;99.90;;;;;;4992894;28;20506;-75
2023/04/12 08:50:31;;;;;;;2.50;1.10;;;11.30;99.90;;;;;;4991864;28;20030;-74
2023/04/12 08:52:58;;;;;;;2.00;1.15;;;11.30;99.90;;;;;;5009009;28;20022;-72
2023/04/12 08:55:24;;;;;;;5.28;1.20;;;11.40;99.90;;;;;;4993725;28;20505;-76
2023/04/12 08:57:57;;;;;;;2.50;1.23;;;11.40;99.90;;;;;;4994302;28;20053;-76
2023/04/12 09:00:24;;;;;;;2.40;0.90;;;11.50;99.90;;;;;;4995173;28;20034;-76
2023/04/12 09:02:50;;;;;;;2.38;1.23;;;11.50;99.90;;;;;;4994269;28;20491;-75
2023/04/12 09:05:16;;;;;;;1.40;1.15;;;11.60;99.90;;;;;;4994567;28;20018;-74
2023/04/12 09:07:42;;;;;;;1.88;0.85;;;11.70;99.90;;;;;;4993629;28;20063;-75
2023/04/12 09:10:08;;;;;;;1.67;0.93;;;11.80;99.90;;;;;;4993622;28;20031;-76
2023/04/12 09:12:34;;;;;;;2.17;1.17;;;11.80;99.90;;;;;;4993847;28;20026;-76
2023/04/12 09:15:12;;;;;;;5.07;1.30;;;11.80;99.90;;;;;;4992968;28;20022;-74
2023/04/12 09:17:39;;;;;;;3.35;1.40;;;11.90;99.90;;;;;;4994212;28;20030;-75
2023/04/12 09:20:17;;;;;;;1.67;1.02;;;11.90;99.90;;;;;;4991624;28;20037;-75
2023/04/12 09:22:44;;;;;;;2.63;1.10;;;12.00;99.90;;;;;;4993200;28;20030;-75
2023/04/12 09:25:13;;;;;;;2.40;1.30;;;12.00;99.90;;;;;;4991729;28;20022;-76
2023/04/12 09:27:53;;;;;;;3.20;1.40;;;12.00;99.90;;;;;;4992800;28;20081;-76
2023/04/12 09:30:19;;;;;;;3.28;1.30;;;12.10;99.90;;;;;;4995665;28;20557;-75
2023/04/12 09:32:48;;;;;;;3.35;1.27;;;12.10;99.90;;;;;;4996061;28;20054;-76
2023/04/12 09:35:13;;;;;;;2.30;1.25;;;12.20;99.90;;;;;;4982228;28;20043;-76
2023/04/12 09:37:39;;;;;;;2.22;1.42;;;12.20;99.90;;;;;;4996333;28;20030;-75
2023/04/12 09:40:07;;;;;;;6.93;1.45;;;12.30;99.90;;;;;;4996081;28;20101;-76
2023/04/12 09:42:34;;;;;;;1.77;0.98;;;12.40;99.90;;;;;;4996253;28;20030;-76
2023/04/12 09:45:17;;;;;;;5.15;1.13;;;12.40;99.90;;;;;;4996823;28;20081;-76
2023/04/12 09:47:43;;;;;;;3.30;1.50;;;12.50;99.90;;;;;;4995914;28;20117;-75
2023/04/12 09:50:22;;;;;;;4.32;1.30;;;12.60;99.90;;;;;;4995938;28;20450;-75
2023/04/12 09:52:48;;;;;;;4.63;1.35;;;12.70;99.90;;;;;;4994383;28;20077;-76
2023/04/12 09:55:15;;;;;;;3.22;1.40;;;12.80;99.90;;;;;;4995880;28;20026;-77
2023/04/12 09:57:42;;;;;;;1.83;0.88;;;12.90;99.90;;;;;;4995196;28;20030;-74
2023/04/12 10:00:18;;;;;;;2.42;1.15;;;13.00;99.90;;;;;;4995591;28;20376;-74
2023/04/12 10:02:49;;;;;;;2.95;1.33;;;13.10;99.90;;;;;;4994998;28;20018;-75
2023/04/12 10:05:17;;;;;;;5.32;1.50;;;13.20;99.90;;;;;;4993330;28;20403;-74
2023/04/12 10:07:49;;;;;;;2.03;1.10;;;13.30;99.90;;;;;;4995223;28;20161;-75
2023/04/12 10:10:16;;;;;;;1.90;0.95;;;13.30;99.90;;;;;;4995283;28;20022;-76
2023/04/12 10:12:49;;;;;;;2.15;1.00;;;13.40;99.90;;;;;;4993335;28;20022;-75
2023/04/12 10:15:21;;;;;;;2.83;1.20;;;13.50;99.90;;;;;;4994342;28;20028;-76
2023/04/12 10:17:54;;;;;;;5.85;1.63;;;13.60;99.90;;;;;;5010350;28;20045;-75
2023/04/12 10:20:23;;;;;;;3.90;1.40;;;13.70;99.90;;;;;;4996642;28;20614;-76
2023/04/12 10:22:56;;;;;;;1.98;0.82;;;13.80;99.90;;;;;;4997337;28;20555;-74
2023/04/12 10:25:31;;;;;;;4.82;1.42;;;13.90;99.90;;;;;;4995772;28;20026;-76
2023/04/12 10:28:12;;;;;;;4.13;1.67;;;14.00;99.90;;;;;;4991101;28;20042;-75
2023/04/12 10:30:49;;;;;;;4.45;1.27;;;14.00;99.90;;;;;;4986636;28;20037;-74
2023/04/12 10:33:17;;;;;;;3.78;1.38;;;14.00;99.90;;;;;;4985589;28;20022;-74
2023/04/12 10:36:05;;;;;;;2.22;0.88;;;14.00;99.90;;;;;;4991558;28;20395;-76
2023/04/12 10:38:47;;;;;;;3.40;0.90;;;13.90;99.90;;;;;;4987117;28;20491;-77
2023/04/12 10:41:20;;;;;;;1.65;0.90;;;13.90;99.90;;;;;;4989755;28;21711;-75
2023/04/12 10:43:50;;;;;;;2.53;1.00;;;13.80;99.90;;;;;;4990735;28;20029;-78
2023/04/12 10:46:36;;;;;;;2.20;1.10;;;13.90;99.90;;;;;;4985947;28;20030;-76
2023/04/12 10:49:08;;;;;;;1.75;0.70;;;13.90;99.90;;;;;;4987346;28;20030;-75
2023/04/12 10:51:59;;;;;;;2.95;0.93;;;13.90;99.90;;;;;;4990803;28;20058;-75
2023/04/12 10:54:34;;;;;;;3.40;0.98;;;14.00;99.90;;;;;;4989427;28;20142;-75
2023/04/12 10:57:03;;;;;;;2.75;1.00;;;14.00;99.90;;;;;;4991225;28;20032;-74
2023/04/12 10:59:53;;;;;;;3.60;1.23;;;14.20;99.90;;;;;;5002065;28;20444;-75
2023/04/12 11:02:25;;;;;;;2.40;0.75;;;14.30;99.90;;;;;;5005414;28;20126;-76
2023/04/12 11:05:10;;;;;;;1.90;0.70;;;14.20;99.90;;;;;;4989210;28;20037;-77
2023/04/12 11:07:43;;;;;;;1.95;0.80;;;14.20;99.90;;;;;;4987927;28;20026;-73
2023/04/12 11:10:17;;;;;;;3.53;0.80;;;14.30;99.90;;;;;;5001259;28;20380;-76
2023/04/12 11:12:54;;;;;;;2.35;0.70;;;14.30;99.90;;;;;;4986335;28;20038;-76
2023/04/12 11:15:19;;;;;;;1.52;0.70;;;14.30;99.90;;;;;;4993157;28;20042;-77
2023/04/12 11:17:55;;;;;;;1.90;0.60;;;14.40;99.90;;;;;;4988791;28;20651;-75
2023/04/12 11:20:21;;;;;;;2.70;1.00;;;14.50;99.90;;;;;;5005038;28;20120;-75
2023/04/12 11:22:51;;;;;;;2.95;0.63;;;14.60;99.90;;;;;;4990364;28;20034;-74
2023/04/12 11:25:23;;;;;;;1.65;0.60;;;14.70;99.90;;;;;;4981332;28;20677;-75
2023/04/12 11:27:53;;;;;;;1.60;0.60;;;14.70;99.90;;;;;;4986559;28;20091;-74
2023/04/12 11:30:24;;;;;;;1.45;0.55;;;14.70;99.90;;;;;;4978169;28;20027;-73
2023/04/12 11:32:50;;;;;;;3.22;0.70;;;14.80;99.90;;;;;;5001775;28;20038;-74
2023/04/12 11:35:18;;;;;;;1.38;0.95;;;14.80;99.90;;;;;;4990486;28;20026;-75
2023/04/12 11:37:44;;;;;;;1.42;0.60;;;14.90;99.90;;;;;;4989158;28;20018;-75
2023/04/12 11:40:13;;;;;;;1.08;0.68;;;15.00;99.90;;;;;;5000473;28;20026;-76
2023/04/12 11:42:39;;;;;;;0.75;0.50;;;15.00;99.90;;;;;;4980051;28;20034;-72
2023/04/12 11:45:06;;;;;;;2.67;0.60;;;15.00;99.90;;;;;;4987764;28;20033;-74
2023/04/12 11:47:44;;;;;;;1.98;0.70;;;15.00;99.90;;;;;;4986763;28;20049;-74
2023/04/12 11:50:10;;;;;;;0.98;0.50;;;15.10;99.90;;;;;;4984519;28;20034;-74
2023/04/12 11:52:42;;;;;;;2.60;0.68;;;15.10;99.90;;;;;;4986517;28;20033;-74
2023/04/12 11:55:16;;;;;;;1.23;0.65;;;15.20;99.90;;;;;;4983759;28;20141;-75
2023/04/12 11:57:41;;;;;;;1.60;0.50;;;15.30;99.90;;;;;;4987355;28;20096;-75
2023/04/12 12:00:08;;;;;;;1.23;0.88;;;15.30;99.90;;;;;;4989824;28;20101;-75
2023/04/12 12:02:40;;;;;;;1.20;0.70;;;15.30;99.90;;;;;;4986625;28;20050;-78
2023/04/12 12:05:06;;;;;;;1.98;0.60;;;15.30;99.90;;;;;;4991854;28;20034;-74
2023/04/12 12:07:38;;;;;;;2.08;0.50;;;15.30;99.90;;;;;;4998832;28;20034;-74
2023/04/12 12:10:10;;;;;;;1.30;0.60;;;15.30;99.90;;;;;;4990481;28;20030;-73
2023/04/12 12:12:43;;;;;;;1.13;0.45;;;15.30;99.90;;;;;;4982379;28;20043;-73
2023/04/12 12:15:09;;;;;;;1.67;0.70;;;15.30;99.90;;;;;;4990026;28;20022;-77
2023/04/12 12:17:38;;;;;;;1.15;0.40;;;15.30;99.90;;;;;;4989004;28;20128;-75
2023/04/12 12:20:20;;;;;;;0.85;0.57;;;15.40;99.90;;;;;;4989439;28;20037;-73
2023/04/12 12:22:46;;;;;;;1.58;0.50;;;15.50;99.90;;;;;;4990157;28;20626;-76
2023/04/12 12:25:12;;;;;;;2.20;0.50;;;15.60;99.90;;;;;;4989969;28;20037;-72
2023/04/12 12:27:40;;;;;;;2.58;0.50;;;15.70;99.90;;;;;;4991402;28;20042;-74
2023/04/12 12:30:11;;;;;;;0.77;0.50;;;15.70;99.90;;;;;;4977432;28;20050;-75
2023/04/12 12:32:39;;;;;;;0.88;0.57;;;15.70;99.90;;;;;;4987595;28;20541;-72
2023/04/12 12:35:14;;;;;;;2.05;0.80;;;15.70;99.90;;;;;;4988338;28;20428;-74
2023/04/12 12:37:57;;;;;;;2.28;0.50;;;15.70;99.90;;;;;;4983569;28;20018;-73
2023/04/12 12:40:32;;;;;;;1.58;0.60;;;15.80;99.90;;;;;;4984637;28;20034;-73
2023/04/12 12:42:58;;;;;;;1.52;0.50;;;15.90;99.90;;;;;;4987753;28;20164;-73
2023/04/12 12:45:30;;;;;;;0.98;0.55;;;15.80;99.90;;;;;;4986349;28;20033;-73
2023/04/12 12:48:03;;;;;;;0.95;0.60;;;15.80;99.90;;;;;;4987701;28;20403;-71
2023/04/12 12:50:34;;;;;;;0.63;0.40;;;15.80;99.90;;;;;;4985873;28;20023;-72
2023/04/12 12:53:09;;;;;;;0.52;0.40;;;15.80;99.90;;;;;;4988096;28;20026;-73
2023/04/12 12:55:37;;;;;;;1.48;0.60;;;15.80;99.90;;;;;;4986772;28;20451;-74
2023/04/12 12:58:03;;;;;;;0.85;0.52;;;15.80;99.90;;;;;;4987206;28;20027;-74
2023/04/12 13:00:29;;;;;;;2.50;1.17;;;15.80;99.90;;;;;;4988494;28;20027;-75
2023/04/12 13:02:57;;;;;;;2.08;0.50;;;15.90;99.90;;;;;;4988641;28;20507;-73
2023/04/12 13:05:23;;;;;;;0.73;0.50;;;15.90;99.90;;;;;;5007611;28;20061;-74